sensor_id;sensor_type;location;lat;lon;timestamp;P1;durP1;ratioP1;P2;durP2;ratioP2
23300;SDS011;11819;51.394;12.340;2022-08-03T00:00:37;8.13;;;7.18;;
23300;SDS011;11819;51.394;12.340;2022-08-03T00:03:03;7.70;;;6.90;;
23300;SDS011;11819;51.394;12.340;2022-08-03T00:05:29;8.77;;;7.68;;
23300;SDS011;11819;51.394;12.340;2022-08-03T00:07:57;9.50;;;7.35;;
23300;SDS011;11819;51.394;12.340;2022-08-03T00:10:23;9.40;;;7.38;;
23300;SDS011;11819;51.394;12.340;2022-08-03T00:12:49;10.02;;;7.65;;
23300;SDS011;11819;51.394;12.340;2022-08-03T00:15:15;8.05;;;6.75;;
23300;SDS011;11819;51.394;12.340;2022-08-03T00:17:41;9.18;;;7.15;;
23300;SDS011;11819;51.394;12.340;2022-08-03T00:20:06;8.68;;;7.47;;
23300;SDS011;11819;51.394;12.340;2022-08-03T00:22:33;9.65;;;7.85;;
23300;SDS011;11819;51.394;12.340;2022-08-03T00:24:59;9.20;;;7.63;;
23300;SDS011;11819;51.394;12.340;2022-08-03T00:27:25;11.05;;;8.07;;
23300;SDS011;11819;51.394;12.340;2022-08-03T00:29:50;10.82;;;7.75;;
23300;SDS011;11819;51.394;12.340;2022-08-03T00:32:16;9.70;;;7.68;;
23300;SDS011;11819;51.394;12.340;2022-08-03T00:34:41;10.85;;;7.95;;
23300;SDS011;11819;51.394;12.340;2022-08-03T00:37:07;11.43;;;8.80;;
23300;SDS011;11819;51.394;12.340;2022-08-03T00:39:32;10.05;;;7.57;;
23300;SDS011;11819;51.394;12.340;2022-08-03T00:42:02;10.18;;;8.45;;
23300;SDS011;11819;51.394;12.340;2022-08-03T00:44:28;11.07;;;8.07;;
23300;SDS011;11819;51.394;12.340;2022-08-03T00:46:53;10.27;;;8.98;;
23300;SDS011;11819;51.394;12.340;2022-08-03T00:49:19;11.73;;;8.45;;
23300;SDS011;11819;51.394;12.340;2022-08-03T00:51:45;10.88;;;8.20;;
23300;SDS011;11819;51.394;12.340;2022-08-03T00:54:11;11.57;;;8.48;;
23300;SDS011;11819;51.394;12.340;2022-08-03T00:56:38;10.05;;;8.10;;
23300;SDS011;11819;51.394;12.340;2022-08-03T00:59:04;10.55;;;8.55;;
23300;SDS011;11819;51.394;12.340;2022-08-03T01:01:30;10.70;;;8.05;;
23300;SDS011;11819;51.394;12.340;2022-08-03T01:03:56;9.85;;;8.48;;
23300;SDS011;11819;51.394;12.340;2022-08-03T01:06:24;10.68;;;8.40;;
23300;SDS011;11819;51.394;12.340;2022-08-03T01:09:18;9.52;;;8.45;;
23300;SDS011;11819;51.394;12.340;2022-08-03T01:12:03;11.40;;;8.13;;
23300;SDS011;11819;51.394;12.340;2022-08-03T01:14:59;10.63;;;8.63;;
23300;SDS011;11819;51.394;12.340;2022-08-03T01:20:24;8.98;;;7.75;;
23300;SDS011;11819;51.394;12.340;2022-08-03T01:31:36;11.77;;;8.20;;
23300;SDS011;11819;51.394;12.340;2022-08-03T01:34:06;9.70;;;8.55;;
23300;SDS011;11819;51.394;12.340;2022-08-03T01:36:35;10.00;;;8.38;;
23300;SDS011;11819;51.394;12.340;2022-08-03T01:39:04;10.40;;;8.13;;
23300;SDS011;11819;51.394;12.340;2022-08-03T01:41:34;9.32;;;8.38;;
23300;SDS011;11819;51.394;12.340;2022-08-03T01:44:07;11.40;;;8.73;;
23300;SDS011;11819;51.394;12.340;2022-08-03T01:46:34;10.30;;;8.75;;
23300;SDS011;11819;51.394;12.340;2022-08-03T01:49:00;9.65;;;8.32;;
23300;SDS011;11819;51.394;12.340;2022-08-03T01:51:28;11.73;;;9.27;;
23300;SDS011;11819;51.394;12.340;2022-08-03T01:53:55;11.35;;;8.50;;
23300;SDS011;11819;51.394;12.340;2022-08-03T01:56:23;11.85;;;8.32;;
23300;SDS011;11819;51.394;12.340;2022-08-03T01:58:51;12.88;;;8.75;;
23300;SDS011;11819;51.394;12.340;2022-08-03T02:01:18;9.68;;;8.30;;
23300;SDS011;11819;51.394;12.340;2022-08-03T02:03:46;11.57;;;8.40;;
23300;SDS011;11819;51.394;12.340;2022-08-03T02:06:14;11.25;;;8.82;;
23300;SDS011;11819;51.394;12.340;2022-08-03T02:08:42;11.65;;;9.40;;
23300;SDS011;11819;51.394;12.340;2022-08-03T02:11:11;11.10;;;8.68;;
23300;SDS011;11819;51.394;12.340;2022-08-03T02:13:37;11.13;;;8.18;;
23300;SDS011;11819;51.394;12.340;2022-08-03T02:16:03;13.50;;;10.10;;
23300;SDS011;11819;51.394;12.340;2022-08-03T02:18:29;11.18;;;8.60;;
23300;SDS011;11819;51.394;12.340;2022-08-03T02:20:57;10.75;;;8.80;;
23300;SDS011;11819;51.394;12.340;2022-08-03T02:23:28;10.40;;;8.25;;
23300;SDS011;11819;51.394;12.340;2022-08-03T02:25:56;12.15;;;8.77;;
23300;SDS011;11819;51.394;12.340;2022-08-03T02:28:29;10.27;;;9.07;;
23300;SDS011;11819;51.394;12.340;2022-08-03T02:30:58;10.93;;;8.70;;
23300;SDS011;11819;51.394;12.340;2022-08-03T02:33:29;12.13;;;8.63;;
23300;SDS011;11819;51.394;12.340;2022-08-03T02:35:58;14.07;;;8.82;;
23300;SDS011;11819;51.394;12.340;2022-08-03T02:38:26;8.82;;;7.93;;
23300;SDS011;11819;51.394;12.340;2022-08-03T02:40:55;9.23;;;8.23;;
23300;SDS011;11819;51.394;12.340;2022-08-03T02:43:23;12.35;;;8.18;;
23300;SDS011;11819;51.394;12.340;2022-08-03T02:45:50;12.05;;;9.02;;
23300;SDS011;11819;51.394;12.340;2022-08-03T02:48:21;10.63;;;8.13;;
23300;SDS011;11819;51.394;12.340;2022-08-03T02:50:52;12.45;;;8.57;;
23300;SDS011;11819;51.394;12.340;2022-08-03T02:53:20;12.15;;;8.52;;
23300;SDS011;11819;51.394;12.340;2022-08-03T02:55:48;9.93;;;8.70;;
23300;SDS011;11819;51.394;12.340;2022-08-03T02:58:16;12.77;;;8.60;;
23300;SDS011;11819;51.394;12.340;2022-08-03T03:00:45;10.65;;;8.60;;
23300;SDS011;11819;51.394;12.340;2022-08-03T03:03:12;10.98;;;8.18;;
23300;SDS011;11819;51.394;12.340;2022-08-03T03:05:39;10.93;;;8.68;;
23300;SDS011;11819;51.394;12.340;2022-08-03T03:08:06;13.57;;;8.90;;
23300;SDS011;11819;51.394;12.340;2022-08-03T03:10:33;10.43;;;8.55;;
23300;SDS011;11819;51.394;12.340;2022-08-03T03:12:59;10.07;;;8.77;;
23300;SDS011;11819;51.394;12.340;2022-08-03T03:15:26;9.63;;;8.07;;
23300;SDS011;11819;51.394;12.340;2022-08-03T03:17:53;12.05;;;8.23;;
23300;SDS011;11819;51.394;12.340;2022-08-03T03:20:19;11.75;;;9.20;;
23300;SDS011;11819;51.394;12.340;2022-08-03T03:22:46;10.75;;;8.27;;
23300;SDS011;11819;51.394;12.340;2022-08-03T03:25:13;12.82;;;8.30;;
23300;SDS011;11819;51.394;12.340;2022-08-03T03:27:40;15.20;;;8.77;;
23300;SDS011;11819;51.394;12.340;2022-08-03T03:30:06;10.38;;;8.30;;
23300;SDS011;11819;51.394;12.340;2022-08-03T03:32:32;16.92;;;8.75;;
23300;SDS011;11819;51.394;12.340;2022-08-03T03:34:58;12.10;;;8.45;;
23300;SDS011;11819;51.394;12.340;2022-08-03T03:37:27;11.45;;;8.07;;
23300;SDS011;11819;51.394;12.340;2022-08-03T03:39:53;12.07;;;8.35;;
23300;SDS011;11819;51.394;12.340;2022-08-03T03:42:18;12.93;;;9.20;;
23300;SDS011;11819;51.394;12.340;2022-08-03T03:44:45;13.90;;;8.85;;
23300;SDS011;11819;51.394;12.340;2022-08-03T03:47:11;12.13;;;8.32;;
23300;SDS011;11819;51.394;12.340;2022-08-03T03:49:37;13.35;;;8.60;;
23300;SDS011;11819;51.394;12.340;2022-08-03T03:52:03;13.85;;;8.55;;
23300;SDS011;11819;51.394;12.340;2022-08-03T03:54:42;11.90;;;8.45;;
23300;SDS011;11819;51.394;12.340;2022-08-03T03:57:09;10.50;;;8.73;;
23300;SDS011;11819;51.394;12.340;2022-08-03T03:59:39;13.10;;;8.88;;
23300;SDS011;11819;51.394;12.340;2022-08-03T04:02:06;17.98;;;10.07;;
23300;SDS011;11819;51.394;12.340;2022-08-03T04:04:33;17.58;;;9.70;;
23300;SDS011;11819;51.394;12.340;2022-08-03T04:07:19;13.32;;;9.82;;
23300;SDS011;11819;51.394;12.340;2022-08-03T04:10:07;12.95;;;9.23;;
23300;SDS011;11819;51.394;12.340;2022-08-03T04:12:56;12.63;;;9.05;;
23300;SDS011;11819;51.394;12.340;2022-08-03T04:15:24;14.45;;;10.52;;
23300;SDS011;11819;51.394;12.340;2022-08-03T04:17:52;13.85;;;9.65;;
23300;SDS011;11819;51.394;12.340;2022-08-03T04:20:21;13.95;;;10.18;;
23300;SDS011;11819;51.394;12.340;2022-08-03T04:22:51;18.02;;;10.98;;
23300;SDS011;11819;51.394;12.340;2022-08-03T04:25:18;19.38;;;11.45;;
23300;SDS011;11819;51.394;12.340;2022-08-03T04:27:49;15.50;;;11.15;;
23300;SDS011;11819;51.394;12.340;2022-08-03T04:30:17;15.85;;;10.98;;
23300;SDS011;11819;51.394;12.340;2022-08-03T04:32:43;14.73;;;10.63;;
23300;SDS011;11819;51.394;12.340;2022-08-03T04:35:14;14.73;;;10.05;;
23300;SDS011;11819;51.394;12.340;2022-08-03T04:37:40;13.60;;;10.80;;
23300;SDS011;11819;51.394;12.340;2022-08-03T04:40:12;17.60;;;10.65;;
23300;SDS011;11819;51.394;12.340;2022-08-03T04:42:42;16.80;;;11.27;;
23300;SDS011;11819;51.394;12.340;2022-08-03T04:45:12;14.23;;;9.68;;
23300;SDS011;11819;51.394;12.340;2022-08-03T04:47:39;17.10;;;9.80;;
23300;SDS011;11819;51.394;12.340;2022-08-03T04:50:06;12.70;;;8.73;;
23300;SDS011;11819;51.394;12.340;2022-08-03T04:52:33;12.30;;;8.82;;
23300;SDS011;11819;51.394;12.340;2022-08-03T04:55:00;12.90;;;8.13;;
23300;SDS011;11819;51.394;12.340;2022-08-03T04:57:26;10.57;;;8.35;;
23300;SDS011;11819;51.394;12.340;2022-08-03T04:59:52;13.00;;;9.27;;
23300;SDS011;11819;51.394;12.340;2022-08-03T05:02:19;13.70;;;8.45;;
23300;SDS011;11819;51.394;12.340;2022-08-03T05:04:45;11.32;;;8.63;;
23300;SDS011;11819;51.394;12.340;2022-08-03T05:07:14;12.48;;;8.45;;
23300;SDS011;11819;51.394;12.340;2022-08-03T05:09:41;11.13;;;9.10;;
23300;SDS011;11819;51.394;12.340;2022-08-03T05:12:07;12.32;;;8.20;;
23300;SDS011;11819;51.394;12.340;2022-08-03T05:14:33;10.68;;;8.15;;
23300;SDS011;11819;51.394;12.340;2022-08-03T05:17:01;13.20;;;7.85;;
23300;SDS011;11819;51.394;12.340;2022-08-03T05:19:27;13.20;;;7.50;;
23300;SDS011;11819;51.394;12.340;2022-08-03T05:21:53;10.95;;;7.22;;
23300;SDS011;11819;51.394;12.340;2022-08-03T05:24:18;11.98;;;7.65;;
23300;SDS011;11819;51.394;12.340;2022-08-03T05:26:44;11.45;;;7.13;;
23300;SDS011;11819;51.394;12.340;2022-08-03T05:29:09;10.77;;;7.30;;
23300;SDS011;11819;51.394;12.340;2022-08-03T05:31:35;11.90;;;7.40;;
23300;SDS011;11819;51.394;12.340;2022-08-03T05:34:00;11.98;;;7.45;;
23300;SDS011;11819;51.394;12.340;2022-08-03T05:36:26;9.80;;;6.65;;
23300;SDS011;11819;51.394;12.340;2022-08-03T05:38:52;10.73;;;7.40;;
23300;SDS011;11819;51.394;12.340;2022-08-03T05:41:17;9.57;;;6.80;;
23300;SDS011;11819;51.394;12.340;2022-08-03T05:43:43;9.70;;;7.00;;
23300;SDS011;11819;51.394;12.340;2022-08-03T05:46:09;11.43;;;7.45;;
23300;SDS011;11819;51.394;12.340;2022-08-03T05:48:34;9.38;;;7.65;;
23300;SDS011;11819;51.394;12.340;2022-08-03T05:51:00;13.25;;;7.15;;
23300;SDS011;11819;51.394;12.340;2022-08-03T05:53:26;11.15;;;7.57;;
23300;SDS011;11819;51.394;12.340;2022-08-03T05:55:53;8.68;;;6.32;;
23300;SDS011;11819;51.394;12.340;2022-08-03T05:58:19;8.30;;;6.13;;
23300;SDS011;11819;51.394;12.340;2022-08-03T06:00:45;10.70;;;6.75;;
23300;SDS011;11819;51.394;12.340;2022-08-03T06:03:10;15.13;;;6.15;;
23300;SDS011;11819;51.394;12.340;2022-08-03T06:05:36;12.63;;;5.95;;
23300;SDS011;11819;51.394;12.340;2022-08-03T06:08:02;6.95;;;5.57;;
23300;SDS011;11819;51.394;12.340;2022-08-03T06:10:29;7.28;;;5.68;;
23300;SDS011;11819;51.394;12.340;2022-08-03T06:12:55;8.00;;;5.57;;
23300;SDS011;11819;51.394;12.340;2022-08-03T06:15:20;11.77;;;5.65;;
23300;SDS011;11819;51.394;12.340;2022-08-03T06:17:46;7.53;;;5.30;;
23300;SDS011;11819;51.394;12.340;2022-08-03T06:20:15;6.85;;;5.10;;
23300;SDS011;11819;51.394;12.340;2022-08-03T06:22:42;7.32;;;5.18;;
23300;SDS011;11819;51.394;12.340;2022-08-03T06:25:08;6.68;;;5.00;;
23300;SDS011;11819;51.394;12.340;2022-08-03T06:27:34;9.88;;;5.47;;
23300;SDS011;11819;51.394;12.340;2022-08-03T06:30:04;9.10;;;5.30;;
23300;SDS011;11819;51.394;12.340;2022-08-03T06:32:35;10.43;;;5.47;;
23300;SDS011;11819;51.394;12.340;2022-08-03T06:35:01;8.43;;;5.05;;
23300;SDS011;11819;51.394;12.340;2022-08-03T06:37:27;7.32;;;5.20;;
23300;SDS011;11819;51.394;12.340;2022-08-03T06:39:53;7.63;;;4.95;;
23300;SDS011;11819;51.394;12.340;2022-08-03T06:42:19;8.85;;;6.30;;
23300;SDS011;11819;51.394;12.340;2022-08-03T06:44:45;6.18;;;4.88;;
23300;SDS011;11819;51.394;12.340;2022-08-03T06:47:11;8.30;;;5.10;;
23300;SDS011;11819;51.394;12.340;2022-08-03T06:49:36;8.38;;;5.28;;
23300;SDS011;11819;51.394;12.340;2022-08-03T06:52:02;10.18;;;4.63;;
23300;SDS011;11819;51.394;12.340;2022-08-03T06:54:28;6.68;;;4.43;;
23300;SDS011;11819;51.394;12.340;2022-08-03T06:56:54;7.03;;;4.75;;
23300;SDS011;11819;51.394;12.340;2022-08-03T06:59:19;5.68;;;4.07;;
23300;SDS011;11819;51.394;12.340;2022-08-03T07:01:45;7.05;;;4.43;;
23300;SDS011;11819;51.394;12.340;2022-08-03T07:04:11;7.93;;;4.63;;
23300;SDS011;11819;51.394;12.340;2022-08-03T07:06:37;6.85;;;4.97;;
23300;SDS011;11819;51.394;12.340;2022-08-03T07:09:03;8.05;;;4.60;;
23300;SDS011;11819;51.394;12.340;2022-08-03T07:11:29;5.40;;;4.40;;
23300;SDS011;11819;51.394;12.340;2022-08-03T07:13:54;6.93;;;4.32;;
23300;SDS011;11819;51.394;12.340;2022-08-03T07:16:20;8.75;;;4.60;;
23300;SDS011;11819;51.394;12.340;2022-08-03T07:18:47;6.35;;;4.70;;
23300;SDS011;11819;51.394;12.340;2022-08-03T07:21:12;6.60;;;4.80;;
23300;SDS011;11819;51.394;12.340;2022-08-03T07:23:40;5.35;;;4.43;;
23300;SDS011;11819;51.394;12.340;2022-08-03T07:26:05;5.80;;;4.30;;
23300;SDS011;11819;51.394;12.340;2022-08-03T07:28:31;6.25;;;4.57;;
23300;SDS011;11819;51.394;12.340;2022-08-03T07:30:57;6.38;;;4.45;;
23300;SDS011;11819;51.394;12.340;2022-08-03T07:33:23;9.10;;;4.85;;
23300;SDS011;11819;51.394;12.340;2022-08-03T07:35:49;6.47;;;4.50;;
23300;SDS011;11819;51.394;12.340;2022-08-03T07:38:15;5.35;;;4.40;;
23300;SDS011;11819;51.394;12.340;2022-08-03T07:40:40;5.70;;;4.28;;
23300;SDS011;11819;51.394;12.340;2022-08-03T07:43:06;5.63;;;4.38;;
23300;SDS011;11819;51.394;12.340;2022-08-03T07:45:31;6.40;;;4.70;;
23300;SDS011;11819;51.394;12.340;2022-08-03T07:47:58;4.90;;;4.00;;
23300;SDS011;11819;51.394;12.340;2022-08-03T07:50:24;5.68;;;4.35;;
23300;SDS011;11819;51.394;12.340;2022-08-03T07:52:50;6.00;;;4.28;;
23300;SDS011;11819;51.394;12.340;2022-08-03T07:55:24;6.00;;;3.90;;
23300;SDS011;11819;51.394;12.340;2022-08-03T07:58:06;5.85;;;4.40;;
23300;SDS011;11819;51.394;12.340;2022-08-03T08:00:34;6.07;;;4.10;;
23300;SDS011;11819;51.394;12.340;2022-08-03T08:03:00;5.57;;;4.00;;
23300;SDS011;11819;51.394;12.340;2022-08-03T08:05:26;7.50;;;4.38;;
23300;SDS011;11819;51.394;12.340;2022-08-03T08:07:52;7.65;;;4.57;;
23300;SDS011;11819;51.394;12.340;2022-08-03T08:10:18;6.97;;;4.05;;
23300;SDS011;11819;51.394;12.340;2022-08-03T08:12:44;6.32;;;4.25;;
23300;SDS011;11819;51.394;12.340;2022-08-03T08:15:10;6.60;;;3.90;;
23300;SDS011;11819;51.394;12.340;2022-08-03T08:17:46;7.28;;;4.32;;
23300;SDS011;11819;51.394;12.340;2022-08-03T08:20:17;8.02;;;4.45;;
23300;SDS011;11819;51.394;12.340;2022-08-03T08:22:50;7.05;;;4.55;;
23300;SDS011;11819;51.394;12.340;2022-08-03T08:25:16;9.68;;;5.13;;
23300;SDS011;11819;51.394;12.340;2022-08-03T08:27:45;7.43;;;4.30;;
23300;SDS011;11819;51.394;12.340;2022-08-03T08:30:13;6.68;;;4.30;;
23300;SDS011;11819;51.394;12.340;2022-08-03T08:32:40;6.53;;;4.60;;
23300;SDS011;11819;51.394;12.340;2022-08-03T08:35:06;7.05;;;4.40;;
23300;SDS011;11819;51.394;12.340;2022-08-03T08:37:33;7.47;;;4.70;;
23300;SDS011;11819;51.394;12.340;2022-08-03T08:39:59;6.95;;;4.40;;
23300;SDS011;11819;51.394;12.340;2022-08-03T08:42:25;7.40;;;5.13;;
23300;SDS011;11819;51.394;12.340;2022-08-03T08:44:50;7.57;;;4.53;;
23300;SDS011;11819;51.394;12.340;2022-08-03T08:47:20;6.53;;;4.78;;
23300;SDS011;11819;51.394;12.340;2022-08-03T08:49:49;5.93;;;4.50;;
23300;SDS011;11819;51.394;12.340;2022-08-03T08:52:18;7.53;;;4.70;;
23300;SDS011;11819;51.394;12.340;2022-08-03T08:54:55;8.52;;;4.60;;
23300;SDS011;11819;51.394;12.340;2022-08-03T08:57:29;5.28;;;4.32;;
23300;SDS011;11819;51.394;12.340;2022-08-03T09:00:00;8.57;;;4.60;;
23300;SDS011;11819;51.394;12.340;2022-08-03T09:02:28;8.23;;;4.53;;
23300;SDS011;11819;51.394;12.340;2022-08-03T09:04:54;7.07;;;4.75;;
23300;SDS011;11819;51.394;12.340;2022-08-03T09:07:21;7.45;;;4.88;;
23300;SDS011;11819;51.394;12.340;2022-08-03T09:09:47;8.48;;;4.63;;
23300;SDS011;11819;51.394;12.340;2022-08-03T09:12:13;8.40;;;4.85;;
23300;SDS011;11819;51.394;12.340;2022-08-03T09:14:39;8.60;;;4.78;;
23300;SDS011;11819;51.394;12.340;2022-08-03T09:17:05;6.65;;;4.35;;
23300;SDS011;11819;51.394;12.340;2022-08-03T09:19:31;8.32;;;4.97;;
23300;SDS011;11819;51.394;12.340;2022-08-03T09:24:37;6.35;;;4.53;;
23300;SDS011;11819;51.394;12.340;2022-08-03T09:27:18;5.25;;;4.30;;
23300;SDS011;11819;51.394;12.340;2022-08-03T09:29:48;5.53;;;4.82;;
23300;SDS011;11819;51.394;12.340;2022-08-03T09:32:14;5.43;;;4.60;;
23300;SDS011;11819;51.394;12.340;2022-08-03T09:34:45;5.43;;;4.38;;
23300;SDS011;11819;51.394;12.340;2022-08-03T09:37:12;6.40;;;5.20;;
23300;SDS011;11819;51.394;12.340;2022-08-03T09:39:39;6.28;;;4.13;;
23300;SDS011;11819;51.394;12.340;2022-08-03T09:44:38;7.60;;;4.80;;
23300;SDS011;11819;51.394;12.340;2022-08-03T09:47:06;5.85;;;4.90;;
23300;SDS011;11819;51.394;12.340;2022-08-03T09:49:34;7.32;;;5.05;;
23300;SDS011;11819;51.394;12.340;2022-08-03T09:52:01;6.20;;;4.82;;
23300;SDS011;11819;51.394;12.340;2022-08-03T09:54:36;9.05;;;4.80;;
23300;SDS011;11819;51.394;12.340;2022-08-03T09:57:02;7.38;;;4.70;;
23300;SDS011;11819;51.394;12.340;2022-08-03T09:59:29;7.75;;;4.60;;
23300;SDS011;11819;51.394;12.340;2022-08-03T10:01:56;7.32;;;5.38;;
23300;SDS011;11819;51.394;12.340;2022-08-03T10:04:23;6.40;;;4.80;;
23300;SDS011;11819;51.394;12.340;2022-08-03T10:09:31;8.88;;;4.88;;
23300;SDS011;11819;51.394;12.340;2022-08-03T10:12:04;5.65;;;4.60;;
23300;SDS011;11819;51.394;12.340;2022-08-03T10:14:32;7.30;;;4.82;;
23300;SDS011;11819;51.394;12.340;2022-08-03T10:16:58;6.88;;;4.70;;
23300;SDS011;11819;51.394;12.340;2022-08-03T10:19:23;8.00;;;4.88;;
23300;SDS011;11819;51.394;12.340;2022-08-03T10:21:53;6.85;;;4.80;;
23300;SDS011;11819;51.394;12.340;2022-08-03T10:24:25;7.05;;;4.68;;
23300;SDS011;11819;51.394;12.340;2022-08-03T10:26:58;7.05;;;4.43;;
23300;SDS011;11819;51.394;12.340;2022-08-03T10:29:27;7.68;;;4.65;;
23300;SDS011;11819;51.394;12.340;2022-08-03T10:31:57;7.55;;;4.60;;
23300;SDS011;11819;51.394;12.340;2022-08-03T10:34:28;5.03;;;4.53;;
23300;SDS011;11819;51.394;12.340;2022-08-03T10:36:59;6.75;;;4.60;;
23300;SDS011;11819;51.394;12.340;2022-08-03T10:39:27;8.00;;;4.65;;
23300;SDS011;11819;51.394;12.340;2022-08-03T10:41:54;5.03;;;4.18;;
23300;SDS011;11819;51.394;12.340;2022-08-03T10:44:22;5.90;;;4.32;;
23300;SDS011;11819;51.394;12.340;2022-08-03T10:46:49;6.65;;;4.30;;
23300;SDS011;11819;51.394;12.340;2022-08-03T10:49:17;4.43;;;4.03;;
23300;SDS011;11819;51.394;12.340;2022-08-03T10:51:44;5.70;;;4.30;;
23300;SDS011;11819;51.394;12.340;2022-08-03T11:00:21;7.13;;;4.50;;
23300;SDS011;11819;51.394;12.340;2022-08-03T11:03:01;7.65;;;4.55;;
23300;SDS011;11819;51.394;12.340;2022-08-03T11:05:35;5.70;;;4.18;;
23300;SDS011;11819;51.394;12.340;2022-08-03T11:08:21;6.88;;;4.43;;
23300;SDS011;11819;51.394;12.340;2022-08-03T11:10:49;4.97;;;4.30;;
23300;SDS011;11819;51.394;12.340;2022-08-03T11:13:20;7.07;;;4.57;;
23300;SDS011;11819;51.394;12.340;2022-08-03T11:15:48;5.25;;;4.18;;
23300;SDS011;11819;51.394;12.340;2022-08-03T11:18:16;6.22;;;4.50;;
23300;SDS011;11819;51.394;12.340;2022-08-03T11:20:51;5.32;;;4.43;;
23300;SDS011;11819;51.394;12.340;2022-08-03T11:23:20;6.88;;;4.88;;
23300;SDS011;11819;51.394;12.340;2022-08-03T11:26:11;5.65;;;4.50;;
23300;SDS011;11819;51.394;12.340;2022-08-03T11:28:37;5.22;;;4.10;;
23300;SDS011;11819;51.394;12.340;2022-08-03T11:34:07;5.97;;;4.03;;
23300;SDS011;11819;51.394;12.340;2022-08-03T11:39:42;6.10;;;4.65;;
23300;SDS011;11819;51.394;12.340;2022-08-03T11:42:36;5.63;;;4.40;;
23300;SDS011;11819;51.394;12.340;2022-08-03T11:45:02;5.00;;;4.15;;
23300;SDS011;11819;51.394;12.340;2022-08-03T11:47:34;5.47;;;4.40;;
23300;SDS011;11819;51.394;12.340;2022-08-03T11:50:01;5.70;;;4.05;;
23300;SDS011;11819;51.394;12.340;2022-08-03T11:52:27;5.10;;;4.00;;
23300;SDS011;11819;51.394;12.340;2022-08-03T11:54:59;5.85;;;4.00;;
23300;SDS011;11819;51.394;12.340;2022-08-03T11:57:33;6.10;;;4.10;;
23300;SDS011;11819;51.394;12.340;2022-08-03T11:59:59;6.88;;;4.55;;
23300;SDS011;11819;51.394;12.340;2022-08-03T12:02:25;5.97;;;3.92;;
23300;SDS011;11819;51.394;12.340;2022-08-03T12:04:52;5.63;;;4.30;;
23300;SDS011;11819;51.394;12.340;2022-08-03T12:07:19;6.10;;;3.92;;
23300;SDS011;11819;51.394;12.340;2022-08-03T12:12:39;5.47;;;3.65;;
23300;SDS011;11819;51.394;12.340;2022-08-03T12:15:06;4.25;;;3.40;;
23300;SDS011;11819;51.394;12.340;2022-08-03T12:17:33;6.70;;;3.80;;
23300;SDS011;11819;51.394;12.340;2022-08-03T12:19:59;4.25;;;3.60;;
23300;SDS011;11819;51.394;12.340;2022-08-03T12:22:35;5.40;;;3.40;;
23300;SDS011;11819;51.394;12.340;2022-08-03T12:25:03;5.38;;;3.65;;
23300;SDS011;11819;51.394;12.340;2022-08-03T12:27:33;5.13;;;4.05;;
23300;SDS011;11819;51.394;12.340;2022-08-03T12:29:59;6.90;;;3.67;;
23300;SDS011;11819;51.394;12.340;2022-08-03T12:32:26;3.55;;;2.88;;
23300;SDS011;11819;51.394;12.340;2022-08-03T12:34:52;3.30;;;2.95;;
23300;SDS011;11819;51.394;12.340;2022-08-03T12:37:20;4.05;;;3.20;;
23300;SDS011;11819;51.394;12.340;2022-08-03T12:39:53;4.60;;;3.40;;
23300;SDS011;11819;51.394;12.340;2022-08-03T12:42:21;4.45;;;3.70;;
23300;SDS011;11819;51.394;12.340;2022-08-03T12:44:54;5.93;;;3.70;;
23300;SDS011;11819;51.394;12.340;2022-08-03T12:47:20;4.80;;;3.28;;
23300;SDS011;11819;51.394;12.340;2022-08-03T12:49:52;5.07;;;3.45;;
23300;SDS011;11819;51.394;12.340;2022-08-03T12:52:19;8.00;;;3.67;;
23300;SDS011;11819;51.394;12.340;2022-08-03T12:54:55;5.57;;;3.72;;
23300;SDS011;11819;51.394;12.340;2022-08-03T12:57:22;3.53;;;3.10;;
23300;SDS011;11819;51.394;12.340;2022-08-03T12:59:48;6.07;;;3.50;;
23300;SDS011;11819;51.394;12.340;2022-08-03T13:02:15;4.50;;;3.63;;
23300;SDS011;11819;51.394;12.340;2022-08-03T13:04:46;6.80;;;3.70;;
23300;SDS011;11819;51.394;12.340;2022-08-03T13:07:13;5.97;;;3.83;;
23300;SDS011;11819;51.394;12.340;2022-08-03T13:09:50;6.60;;;3.50;;
23300;SDS011;11819;51.394;12.340;2022-08-03T13:12:18;5.53;;;3.47;;
23300;SDS011;11819;51.394;12.340;2022-08-03T13:14:46;7.10;;;3.80;;
23300;SDS011;11819;51.394;12.340;2022-08-03T13:17:13;5.63;;;3.90;;
23300;SDS011;11819;51.394;12.340;2022-08-03T13:19:41;5.78;;;3.70;;
23300;SDS011;11819;51.394;12.340;2022-08-03T13:22:10;5.15;;;3.63;;
23300;SDS011;11819;51.394;12.340;2022-08-03T13:24:47;5.18;;;3.70;;
23300;SDS011;11819;51.394;12.340;2022-08-03T13:27:14;7.10;;;3.40;;
23300;SDS011;11819;51.394;12.340;2022-08-03T13:29:40;5.50;;;3.42;;
23300;SDS011;11819;51.394;12.340;2022-08-03T13:32:09;4.13;;;3.33;;
23300;SDS011;11819;51.394;12.340;2022-08-03T13:34:35;5.03;;;3.75;;
23300;SDS011;11819;51.394;12.340;2022-08-03T13:37:02;5.90;;;3.55;;
23300;SDS011;11819;51.394;12.340;2022-08-03T13:39:27;4.78;;;3.70;;
23300;SDS011;11819;51.394;12.340;2022-08-03T13:41:53;5.95;;;3.75;;
23300;SDS011;11819;51.394;12.340;2022-08-03T13:44:19;6.07;;;3.28;;
23300;SDS011;11819;51.394;12.340;2022-08-03T13:46:45;7.15;;;3.50;;
23300;SDS011;11819;51.394;12.340;2022-08-03T13:49:11;4.22;;;3.55;;
23300;SDS011;11819;51.394;12.340;2022-08-03T13:51:37;7.22;;;3.85;;
23300;SDS011;11819;51.394;12.340;2022-08-03T13:54:03;4.78;;;3.55;;
23300;SDS011;11819;51.394;12.340;2022-08-03T13:56:29;5.28;;;3.60;;
23300;SDS011;11819;51.394;12.340;2022-08-03T13:58:55;5.55;;;3.67;;
23300;SDS011;11819;51.394;12.340;2022-08-03T14:01:21;4.15;;;3.42;;
23300;SDS011;11819;51.394;12.340;2022-08-03T14:03:47;5.28;;;3.78;;
23300;SDS011;11819;51.394;12.340;2022-08-03T14:06:16;5.65;;;3.55;;
23300;SDS011;11819;51.394;12.340;2022-08-03T14:08:42;7.63;;;3.83;;
23300;SDS011;11819;51.394;12.340;2022-08-03T14:11:08;6.95;;;3.65;;
23300;SDS011;11819;51.394;12.340;2022-08-03T14:13:35;6.28;;;3.63;;
23300;SDS011;11819;51.394;12.340;2022-08-03T14:16:01;4.70;;;3.70;;
23300;SDS011;11819;51.394;12.340;2022-08-03T14:18:27;4.45;;;3.63;;
23300;SDS011;11819;51.394;12.340;2022-08-03T14:20:52;4.93;;;3.80;;
23300;SDS011;11819;51.394;12.340;2022-08-03T14:23:18;5.85;;;3.63;;
23300;SDS011;11819;51.394;12.340;2022-08-03T14:25:44;4.07;;;3.67;;
23300;SDS011;11819;51.394;12.340;2022-08-03T14:28:10;7.15;;;3.90;;
23300;SDS011;11819;51.394;12.340;2022-08-03T14:30:35;5.90;;;3.50;;
23300;SDS011;11819;51.394;12.340;2022-08-03T14:33:01;4.97;;;3.75;;
23300;SDS011;11819;51.394;12.340;2022-08-03T14:35:27;4.45;;;3.80;;
23300;SDS011;11819;51.394;12.340;2022-08-03T14:37:52;5.70;;;3.67;;
23300;SDS011;11819;51.394;12.340;2022-08-03T14:40:18;5.07;;;3.50;;
23300;SDS011;11819;51.394;12.340;2022-08-03T14:42:44;7.47;;;4.07;;
23300;SDS011;11819;51.394;12.340;2022-08-03T14:45:10;5.88;;;3.70;;
23300;SDS011;11819;51.394;12.340;2022-08-03T14:47:37;5.50;;;3.67;;
23300;SDS011;11819;51.394;12.340;2022-08-03T14:50:03;5.82;;;3.60;;
23300;SDS011;11819;51.394;12.340;2022-08-03T14:52:30;5.57;;;3.78;;
23300;SDS011;11819;51.394;12.340;2022-08-03T14:54:56;6.20;;;3.15;;
23300;SDS011;11819;51.394;12.340;2022-08-03T14:57:22;4.10;;;3.47;;
23300;SDS011;11819;51.394;12.340;2022-08-03T14:59:48;6.05;;;3.85;;
23300;SDS011;11819;51.394;12.340;2022-08-03T15:02:14;5.20;;;3.47;;
23300;SDS011;11819;51.394;12.340;2022-08-03T15:04:40;4.65;;;3.60;;
23300;SDS011;11819;51.394;12.340;2022-08-03T15:07:06;5.50;;;3.45;;
23300;SDS011;11819;51.394;12.340;2022-08-03T15:09:31;4.05;;;3.58;;